createdAt,value
2018-11-28T00:01:06.619Z,13.57
2018-11-28T00:03:39.110Z,16.70
2018-11-28T00:06:11.616Z,14.73
2018-11-28T00:08:44.012Z,15.67
2018-11-28T00:11:16.478Z,16.77
2018-11-28T00:13:48.925Z,16.03
2018-11-28T00:16:21.379Z,15.63
2018-11-28T00:18:53.775Z,14.90
2018-11-28T00:21:26.276Z,14.00
2018-11-28T00:23:58.767Z,13.30
2018-11-28T00:26:31.227Z,15.27
2018-11-28T00:29:03.652Z,14.23
2018-11-28T00:31:36.099Z,14.73
2018-11-28T00:34:08.558Z,14.37
2018-11-28T00:36:40.985Z,15.17
2018-11-28T00:39:13.347Z,13.97
2018-11-28T00:41:45.759Z,14.67
2018-11-28T00:44:18.155Z,13.83
2018-11-28T00:46:50.579Z,13.37
2018-11-28T00:49:23.124Z,13.77
2018-11-28T00:51:55.608Z,13.20
2018-11-28T00:54:28.028Z,11.90
2018-11-28T00:57:00.456Z,11.93
2018-11-28T00:59:32.829Z,12.40
2018-11-28T01:02:05.346Z,12.57
2018-11-28T01:04:38.878Z,12.90
2018-11-28T01:07:11.295Z,12.03
2018-11-28T01:09:43.713Z,12.70
2018-11-28T01:12:16.136Z,12.60
2018-11-28T01:14:48.537Z,13.33
2018-11-28T01:17:21.036Z,11.90
2018-11-28T01:19:53.429Z,10.97
2018-11-28T01:22:25.871Z,11.03
2018-11-28T01:24:58.367Z,10.67
2018-11-28T01:27:30.761Z,9.57
2018-11-28T01:30:05.686Z,10.43
2018-11-28T01:32:38.134Z,10.23
2018-11-28T01:35:11.435Z,10.03
2018-11-28T01:37:43.953Z,11.10
2018-11-28T01:40:17.352Z,10.50
2018-11-28T01:42:49.777Z,10.53
2018-11-28T01:45:22.757Z,9.07
2018-11-28T01:47:55.191Z,9.53
2018-11-28T01:50:27.606Z,9.70
2018-11-28T01:53:00.033Z,9.13
2018-11-28T01:55:32.403Z,8.80
2018-11-28T01:58:05.247Z,9.00
2018-11-28T02:00:37.676Z,8.73
2018-11-28T02:03:10.130Z,8.83
2018-11-28T02:05:42.507Z,9.50
2018-11-28T02:08:14.945Z,10.40
2018-11-28T02:10:47.330Z,8.90
2018-11-28T02:13:19.756Z,8.93
2018-11-28T02:15:52.132Z,10.07
2018-11-28T02:18:24.663Z,9.47
2018-11-28T02:20:57.409Z,10.60
2018-11-28T02:23:29.862Z,9.83
2018-11-28T02:26:02.428Z,10.67
2018-11-28T02:28:34.917Z,10.53
2018-11-28T02:31:07.355Z,9.27
2018-11-28T02:33:39.794Z,10.10
2018-11-28T02:36:12.189Z,10.43
2018-11-28T02:38:44.722Z,9.93
2018-11-28T02:41:17.107Z,10.87
2018-11-28T02:43:49.558Z,10.07
2018-11-28T02:46:31.060Z,10.97
2018-11-28T02:49:03.711Z,9.77
2018-11-28T02:51:36.094Z,10.30
2018-11-28T02:54:08.523Z,9.97
2018-11-28T02:56:40.998Z,10.10
2018-11-28T02:59:13.372Z,11.17
2018-11-28T03:01:45.778Z,11.23
2018-11-28T03:04:18.214Z,10.37
2018-11-28T03:06:50.693Z,10.70
2018-11-28T03:09:23.119Z,11.90
2018-11-28T03:11:55.565Z,11.00
2018-11-28T03:14:28.006Z,11.20
2018-11-28T03:17:00.461Z,11.63
2018-11-28T03:19:32.846Z,11.17
2018-11-28T03:22:06.287Z,11.27
2018-11-28T03:24:38.717Z,10.93
2018-11-28T03:27:11.238Z,12.30
2018-11-28T03:29:43.667Z,10.67
2018-11-28T03:32:16.302Z,11.30
2018-11-28T03:34:48.698Z,11.73
2018-11-28T03:37:21.327Z,11.00
2018-11-28T03:39:53.725Z,12.13
2018-11-28T03:42:26.474Z,11.73
2018-11-28T03:44:58.869Z,11.93
2018-11-28T03:47:33.078Z,11.53
2018-11-28T03:50:07.099Z,12.07
2018-11-28T03:52:39.782Z,11.07
2018-11-28T03:55:13.076Z,11.67
2018-11-28T03:57:46.546Z,11.67
2018-11-28T04:00:20.175Z,11.20
2018-11-28T04:02:53.024Z,12.43
2018-11-28T04:05:25.430Z,12.80
2018-11-28T04:07:57.957Z,12.43
2018-11-28T04:10:30.551Z,12.97
2018-11-28T04:13:02.981Z,13.20
2018-11-28T04:15:35.574Z,13.23
2018-11-28T04:18:08.178Z,12.80
2018-11-28T04:20:40.665Z,12.80
2018-11-28T04:23:13.107Z,12.73
2018-11-28T04:25:45.514Z,12.43
2018-11-28T04:28:17.955Z,12.07
2018-11-28T04:30:50.445Z,14.40
2018-11-28T04:33:23.003Z,12.87
2018-11-28T04:35:55.396Z,12.83
2018-11-28T04:38:27.863Z,13.97
2018-11-28T04:41:00.247Z,13.43
2018-11-28T04:43:32.721Z,13.50
2018-11-28T04:46:05.641Z,12.50
2018-11-28T04:48:38.200Z,13.37
2018-11-28T04:51:10.616Z,13.47
2018-11-28T04:53:43.034Z,13.87
2018-11-28T04:56:15.514Z,13.20
2018-11-28T04:58:47.997Z,14.17
2018-11-28T05:01:20.415Z,14.17
2018-11-28T05:03:52.912Z,13.73
2018-11-28T05:06:36.536Z,13.87
2018-11-28T05:09:09.000Z,14.13
2018-11-28T05:11:41.396Z,14.63
2018-11-28T05:14:13.832Z,13.57
2018-11-28T05:16:46.326Z,13.73
2018-11-28T05:19:18.779Z,13.90
2018-11-28T05:21:51.216Z,15.63
2018-11-28T05:24:23.667Z,15.23
2018-11-28T05:26:56.056Z,15.30
2018-11-28T05:29:30.226Z,15.70
2018-11-28T05:32:02.967Z,16.50
2018-11-28T05:34:35.429Z,16.23
2018-11-28T05:37:07.832Z,16.30
2018-11-28T05:39:40.270Z,16.37
2018-11-28T05:42:12.705Z,15.63
2018-11-28T05:44:45.146Z,16.43
2018-11-28T05:47:17.555Z,17.23
2018-11-28T05:49:50.123Z,17.07
2018-11-28T05:52:22.569Z,17.47
2018-11-28T05:54:55.012Z,18.10
2018-11-28T05:57:27.446Z,17.23
2018-11-28T05:59:59.926Z,17.03
2018-11-28T06:02:32.350Z,18.13
2018-11-28T06:05:06.177Z,17.10
2018-11-28T06:07:38.565Z,18.03
2018-11-28T06:10:11.214Z,18.70
2018-11-28T06:12:43.834Z,19.37
2018-11-28T06:15:16.172Z,18.93
2018-11-28T06:17:48.599Z,18.93
2018-11-28T06:20:21.012Z,18.00
2018-11-28T06:22:53.516Z,18.10
2018-11-28T06:25:25.943Z,17.60
2018-11-28T06:27:58.396Z,18.13
2018-11-28T06:30:31.037Z,19.77
2018-11-28T06:33:03.560Z,18.33
2018-11-28T06:35:36.167Z,18.23
2018-11-28T06:38:08.721Z,18.10
2018-11-28T06:40:41.225Z,16.87
2018-11-28T06:43:13.682Z,18.60
2018-11-28T06:45:46.112Z,17.83
2018-11-28T06:48:18.949Z,17.17
2018-11-28T06:50:51.490Z,17.03
2018-11-28T06:53:24.117Z,17.03
2018-11-28T06:55:56.554Z,18.27
2018-11-28T06:58:29.015Z,18.07
2018-11-28T07:01:01.552Z,17.53
2018-11-28T07:03:34.016Z,16.83
2018-11-28T07:06:06.594Z,16.70
2018-11-28T07:08:39.012Z,19.17
2018-11-28T07:11:11.464Z,18.70
2018-11-28T07:13:43.867Z,17.47
2018-11-28T07:16:16.450Z,19.37
2018-11-28T07:19:01.559Z,17.93
2018-11-28T07:21:34.345Z,19.00
2018-11-28T07:24:07.310Z,17.73
2018-11-28T07:26:39.765Z,18.20
2018-11-28T07:29:12.254Z,18.90
2018-11-28T07:31:44.728Z,19.40
2018-11-28T07:34:17.271Z,19.00
2018-11-28T07:36:49.693Z,17.80
2018-11-28T07:39:22.136Z,20.63
2018-11-28T07:41:54.596Z,20.27
2018-11-28T07:44:27.038Z,19.37
2018-11-28T07:46:59.543Z,19.03
2018-11-28T07:49:32.026Z,21.80
2018-11-28T07:52:04.824Z,20.47
2018-11-28T07:54:37.296Z,18.97
2018-11-28T07:57:09.804Z,18.10
2018-11-28T07:59:42.483Z,18.97
2018-11-28T08:02:14.908Z,18.77
2018-11-28T08:04:47.850Z,18.50
2018-11-28T08:07:20.349Z,17.83
2018-11-28T08:09:52.822Z,17.10
2018-11-28T08:12:27.030Z,17.63
2018-11-28T08:14:59.463Z,16.77
2018-11-28T08:17:31.941Z,16.67
2018-11-28T08:20:04.975Z,15.47
2018-11-28T08:22:37.785Z,16.03
2018-11-28T08:25:12.895Z,15.60
2018-11-28T08:27:45.861Z,16.60
2018-11-28T08:30:23.797Z,16.13
2018-11-28T08:32:56.875Z,15.27
2018-11-28T08:35:29.381Z,14.90
2018-11-28T08:38:01.850Z,15.37
2018-11-28T08:40:34.360Z,14.87
2018-11-28T08:43:06.782Z,14.00
2018-11-28T08:45:39.525Z,14.17
2018-11-28T08:48:16.221Z,13.60
2018-11-28T08:50:48.656Z,12.43
2018-11-28T08:53:21.106Z,13.27
2018-11-28T08:55:53.596Z,13.83
2018-11-28T08:58:25.997Z,12.77
2018-11-28T09:00:59.329Z,13.33
2018-11-28T09:03:31.802Z,11.53
2018-11-28T09:06:04.628Z,12.23
2018-11-28T09:08:37.138Z,11.60
2018-11-28T09:11:09.596Z,11.70
2018-11-28T09:13:42.023Z,11.43
2018-11-28T09:16:14.576Z,11.33
2018-11-28T09:18:47.048Z,11.30
2018-11-28T09:21:19.541Z,11.93
2018-11-28T09:23:52.019Z,11.97
2018-11-28T09:26:24.765Z,10.67
2018-11-28T09:28:57.243Z,9.90
2018-11-28T09:31:29.692Z,11.30
2018-11-28T09:34:03.424Z,11.23
2018-11-28T09:36:35.900Z,14.53
2018-11-28T09:39:08.331Z,12.10
2018-11-28T09:41:40.901Z,14.73
2018-11-28T09:44:13.323Z,13.07
2018-11-28T09:46:45.825Z,11.10
2018-11-28T09:49:18.251Z,9.93
2018-11-28T09:51:50.676Z,10.53
2018-11-28T09:54:23.319Z,9.90
2018-11-28T09:56:55.777Z,10.87
2018-11-28T09:59:28.243Z,10.67
2018-11-28T10:02:00.674Z,10.40
2018-11-28T10:04:33.124Z,10.57
2018-11-28T10:07:05.868Z,10.93
2018-11-28T10:09:38.654Z,11.50
2018-11-28T10:12:11.175Z,10.57
2018-11-28T10:14:43.758Z,11.27
2018-11-28T10:17:16.484Z,10.73
2018-11-28T10:19:49.066Z,10.17
2018-11-28T10:22:21.530Z,9.17
2018-11-28T10:24:53.965Z,10.33
2018-11-28T10:27:26.407Z,9.37
2018-11-28T10:29:58.928Z,8.80
2018-11-28T10:32:31.514Z,8.73
2018-11-28T10:35:04.478Z,8.77
2018-11-28T10:37:36.941Z,9.03
2018-11-28T10:40:11.623Z,10.27
2018-11-28T10:42:44.610Z,7.43
2018-11-28T10:45:18.570Z,7.37
2018-11-28T10:47:51.171Z,7.50
2018-11-28T10:50:23.637Z,10.37
2018-11-28T10:52:56.058Z,6.97
2018-11-28T10:55:28.643Z,7.87
2018-11-28T10:58:01.058Z,6.63
2018-11-28T11:00:39.471Z,7.00
2018-11-28T11:03:17.585Z,7.47
2018-11-28T11:05:55.731Z,8.20
2018-11-28T11:08:34.041Z,9.13
2018-11-28T11:11:12.228Z,9.20
2018-11-28T11:13:50.336Z,8.27
2018-11-28T11:16:28.425Z,7.47
2018-11-28T11:19:00.890Z,6.73
2018-11-28T11:21:33.472Z,7.20
2018-11-28T11:24:06.508Z,7.07
2018-11-28T11:26:39.034Z,7.67
2018-11-28T11:29:11.552Z,7.30
2018-11-28T11:31:44.006Z,7.47
2018-11-28T11:34:16.453Z,7.57
2018-11-28T11:36:49.188Z,7.00
2018-11-28T11:39:21.669Z,7.37
2018-11-28T11:41:54.207Z,6.90
2018-11-28T11:44:26.894Z,7.00
2018-11-28T11:46:59.393Z,7.80
2018-11-28T11:49:31.974Z,7.33
2018-11-28T11:52:04.491Z,7.60
2018-11-28T11:54:37.010Z,7.23
2018-11-28T11:57:09.611Z,6.93
2018-11-28T11:59:42.142Z,6.80
2018-11-28T12:02:14.639Z,6.80
2018-11-28T12:04:47.089Z,6.90
2018-11-28T12:07:19.592Z,7.17
2018-11-28T12:09:52.115Z,7.57
2018-11-28T12:12:24.545Z,6.70
2018-11-28T12:14:57.346Z,7.93
2018-11-28T12:17:30.539Z,7.17
2018-11-28T12:20:03.535Z,6.87
2018-11-28T12:22:36.131Z,7.63
2018-11-28T12:25:08.619Z,9.00
2018-11-28T12:27:41.171Z,25.03
2018-11-28T12:30:14.502Z,8.67
2018-11-28T12:32:46.950Z,7.10
2018-11-28T12:35:19.462Z,6.70
2018-11-28T12:37:52.284Z,6.30
2018-11-28T12:40:24.843Z,6.67
2018-11-28T12:42:57.510Z,6.73
2018-11-28T12:45:30.024Z,6.50
2018-11-28T12:48:02.562Z,6.47
2018-11-28T12:50:35.125Z,6.17
2018-11-28T12:53:09.480Z,5.63
2018-11-28T12:55:41.927Z,6.87
2018-11-28T12:58:16.785Z,6.60
2018-11-28T13:00:49.233Z,6.20
2018-11-28T13:03:21.716Z,6.20
2018-11-28T13:05:54.175Z,6.07
2018-11-28T13:08:26.691Z,6.73
2018-11-28T13:10:59.448Z,6.43
2018-11-28T13:13:31.913Z,7.60
2018-11-28T13:16:04.883Z,6.73
2018-11-28T13:18:37.852Z,6.67
2018-11-28T13:21:10.462Z,6.33
2018-11-28T13:23:42.977Z,6.10
2018-11-28T13:26:15.372Z,6.47
2018-11-28T13:28:47.980Z,6.73
2018-11-28T13:31:20.471Z,7.30
2018-11-28T13:33:53.125Z,7.50
2018-11-28T13:36:25.583Z,11.20
2018-11-28T13:38:58.133Z,5.70
2018-11-28T13:41:30.582Z,6.53
2018-11-28T13:44:03.114Z,6.10
2018-11-28T13:46:35.606Z,6.10
2018-11-28T13:49:08.108Z,6.20
2018-11-28T13:51:40.596Z,6.83
2018-11-28T13:54:21.217Z,6.97
2018-11-28T13:57:04.228Z,6.00
2018-11-28T13:59:20.151Z,6.53
2018-11-28T14:01:52.893Z,6.53
2018-11-28T14:04:25.415Z,6.77
2018-11-28T14:06:57.954Z,6.87
2018-11-28T14:09:30.481Z,6.60
2018-11-28T14:12:03.022Z,6.90
2018-11-28T14:14:35.433Z,6.13
2018-11-28T14:17:07.908Z,7.20
2018-11-28T14:19:40.424Z,6.37
2018-11-28T14:22:13.022Z,6.60
2018-11-28T14:24:45.584Z,6.77
2018-11-28T14:27:18.180Z,6.87
2018-11-28T14:29:50.718Z,6.70
2018-11-28T14:32:23.161Z,6.53
2018-11-28T14:34:55.610Z,6.50
2018-11-28T14:37:28.176Z,7.53
2018-11-28T14:40:00.691Z,11.93
2018-11-28T14:42:33.390Z,6.43
2018-11-28T14:45:08.875Z,7.40
2018-11-28T14:47:41.733Z,11.47
2018-11-28T14:50:15.250Z,10.10
2018-11-28T14:52:47.890Z,6.87
2018-11-28T14:55:22.648Z,6.93
2018-11-28T14:57:55.307Z,7.20
2018-11-28T15:00:32.237Z,6.63
2018-11-28T15:03:14.029Z,6.47
2018-11-28T15:05:55.445Z,6.40
2018-11-28T15:08:28.712Z,6.40
2018-11-28T15:11:09.255Z,7.10
2018-11-28T15:13:43.012Z,6.67
2018-11-28T15:16:15.519Z,6.97
2018-11-28T15:18:48.148Z,6.53
2018-11-28T15:21:20.948Z,6.33
2018-11-28T15:23:54.037Z,6.30
2018-11-28T15:26:26.453Z,6.43
2018-11-28T15:28:59.093Z,7.80
2018-11-28T15:31:31.875Z,6.77
2018-11-28T15:34:05.008Z,6.53
2018-11-28T15:36:37.618Z,6.87
2018-11-28T15:39:10.136Z,6.97
2018-11-28T15:41:42.847Z,6.67
2018-11-28T15:44:15.340Z,6.27
2018-11-28T15:46:47.815Z,7.80
2018-11-28T15:49:20.244Z,6.90
2018-11-28T15:51:53.090Z,6.23
2018-11-28T15:54:25.625Z,7.20
2018-11-28T15:56:58.061Z,7.80
2018-11-28T15:59:30.493Z,12.03
2018-11-28T16:02:03.197Z,8.27
2018-11-28T16:04:35.771Z,8.27
2018-11-28T16:07:08.243Z,6.70
2018-11-28T16:09:46.289Z,6.60
2018-11-28T16:12:18.781Z,6.60
2018-11-28T16:14:51.353Z,7.00
2018-11-28T16:17:23.832Z,6.60
2018-11-28T16:19:56.635Z,7.10
2018-11-28T16:22:30.018Z,8.53
2018-11-28T16:25:04.018Z,7.60
2018-11-28T16:39:19.494Z,8.57
2018-11-28T16:41:52.238Z,8.70
2018-11-28T16:44:25.570Z,18.83
2018-11-28T16:46:58.110Z,8.90
2018-11-28T16:49:30.722Z,10.10
2018-11-28T16:52:03.481Z,9.47
2018-11-28T16:54:36.155Z,9.57
2018-11-28T16:57:08.765Z,9.10
2018-11-28T16:59:41.405Z,8.73
2018-11-28T17:02:14.371Z,11.00
2018-11-28T17:04:47.200Z,11.00
2018-11-28T17:07:20.006Z,9.53
2018-11-28T17:09:54.519Z,10.60
2018-11-28T17:12:27.226Z,9.77
2018-11-28T17:15:00.016Z,9.23
2018-11-28T17:17:33.053Z,10.33
2018-11-28T17:20:09.572Z,8.93
2018-11-28T17:22:42.443Z,9.00
2018-11-28T17:25:19.640Z,10.60
2018-11-28T17:27:53.285Z,10.37
2018-11-28T17:30:28.162Z,11.23
2018-11-28T17:33:01.034Z,9.50
2018-11-28T17:35:33.857Z,9.73
2018-11-28T17:38:07.799Z,13.90
2018-11-28T17:40:41.105Z,11.40
2018-11-28T17:43:13.763Z,10.90
2018-11-28T17:45:46.301Z,9.37
2018-11-28T17:48:18.964Z,8.90
2018-11-28T17:50:52.588Z,9.03
2018-11-28T17:53:25.447Z,8.20
2018-11-28T17:55:58.776Z,8.50
2018-11-28T17:58:33.127Z,8.67
2018-11-28T18:01:06.165Z,9.00
2018-11-28T18:03:41.404Z,9.10
2018-11-28T18:06:14.139Z,9.47
2018-11-28T18:08:47.957Z,9.03
2018-11-28T18:11:20.789Z,10.40
2018-11-28T18:13:53.865Z,8.83
2018-11-28T18:16:29.457Z,9.60
2018-11-28T18:19:00.143Z,8.40
2018-11-28T18:21:32.949Z,10.67
2018-11-28T18:24:05.522Z,10.30
2018-11-28T18:26:38.643Z,10.50
2018-11-28T18:29:12.349Z,9.60
2018-11-28T18:31:45.165Z,10.13
2018-11-28T18:34:18.611Z,10.83
2018-11-28T18:36:52.215Z,9.67
2018-11-28T18:39:25.173Z,9.83
2018-11-28T18:41:57.988Z,10.17
2018-11-28T18:44:31.213Z,10.27
2018-11-28T18:47:03.822Z,10.23
2018-11-28T18:49:36.629Z,10.83
2018-11-28T18:52:10.104Z,11.20
2018-11-28T18:54:43.053Z,11.10
2018-11-28T18:57:15.586Z,10.73
2018-11-28T18:59:49.400Z,9.97
2018-11-28T19:02:23.388Z,11.53
2018-11-28T19:04:56.816Z,11.33
2018-11-28T19:07:29.597Z,11.20
2018-11-28T19:10:03.294Z,10.93
2018-11-28T19:12:37.930Z,11.73
2018-11-28T19:15:12.159Z,11.57
2018-11-28T19:17:46.804Z,10.53
2018-11-28T19:20:20.973Z,10.53
2018-11-28T19:22:56.936Z,11.73
2018-11-28T19:25:30.703Z,11.70
2018-11-28T19:28:03.842Z,11.57
2018-11-28T19:30:38.048Z,12.73
2018-11-28T19:33:12.699Z,13.07
2018-11-28T19:35:47.934Z,11.97
2018-11-28T19:38:20.692Z,12.93
2018-11-28T19:41:01.942Z,12.90
2018-11-28T19:43:34.894Z,13.97
2018-11-28T19:46:08.467Z,14.17
2018-11-28T19:48:41.586Z,14.30
2018-11-28T19:51:17.876Z,14.57
2018-11-28T19:53:51.355Z,14.70
2018-11-28T19:56:24.436Z,14.23
2018-11-28T19:58:57.115Z,15.30
2018-11-28T20:01:31.704Z,15.50
2018-11-28T20:04:04.798Z,14.80
2018-11-28T20:06:37.742Z,15.70
2018-11-28T20:09:16.704Z,15.83
2018-11-28T20:11:49.181Z,15.47
2018-11-28T20:14:22.033Z,15.70
2018-11-28T20:16:54.586Z,16.77
2018-11-28T20:19:27.789Z,16.43
2018-11-28T20:22:00.542Z,17.37
2018-11-28T20:24:33.654Z,15.97
2018-11-28T20:27:06.306Z,16.27
2018-11-28T20:29:38.822Z,17.40
2018-11-28T20:32:11.435Z,18.13
2018-11-28T20:34:43.952Z,16.90
2018-11-28T20:37:16.457Z,18.43
2018-11-28T20:39:49.279Z,18.17
2018-11-28T20:42:23.807Z,18.90
2018-11-28T20:44:56.618Z,17.73
2018-11-28T20:47:29.094Z,18.50
2018-11-28T20:50:01.877Z,18.83
2018-11-28T20:52:34.815Z,18.53
2018-11-28T20:55:09.242Z,19.33
2018-11-28T20:57:42.441Z,19.30
2018-11-28T21:00:17.770Z,18.87
2018-11-28T21:02:50.943Z,19.23
2018-11-28T21:05:24.016Z,18.40
2018-11-28T21:07:57.111Z,18.87
2018-11-28T21:10:34.341Z,18.80
2018-11-28T21:13:09.294Z,20.33
2018-11-28T21:15:43.543Z,20.30
2018-11-28T21:18:16.773Z,20.90
2018-11-28T21:20:49.554Z,20.63
2018-11-28T21:23:22.339Z,21.00
2018-11-28T21:25:54.948Z,21.87
2018-11-28T21:28:28.004Z,19.70
2018-11-28T21:31:02.797Z,21.47
2018-11-28T21:33:36.872Z,21.10
2018-11-28T21:36:10.516Z,21.57
2018-11-28T21:38:44.356Z,21.77
2018-11-28T21:41:18.959Z,22.20
2018-11-28T21:43:51.946Z,21.40
2018-11-28T21:46:24.799Z,22.03
2018-11-28T21:48:58.145Z,22.70
2018-11-28T21:51:31.041Z,22.37
2018-11-28T21:54:06.088Z,22.63
2018-11-28T21:56:38.954Z,21.53
2018-11-28T21:59:11.881Z,22.33
2018-11-28T22:01:45.624Z,24.10
2018-11-28T22:04:18.554Z,21.67
2018-11-28T22:06:51.437Z,21.03
2018-11-28T22:09:25.360Z,22.07
2018-11-28T22:11:58.808Z,22.90
2018-11-28T22:14:34.322Z,21.73
2018-11-28T22:17:07.069Z,22.03
2018-11-28T22:19:41.603Z,21.13
2018-11-28T22:22:15.052Z,23.53
2018-11-28T22:24:48.665Z,19.07
2018-11-28T22:27:21.429Z,21.47
2018-11-28T22:29:54.923Z,22.03
2018-11-28T22:32:28.011Z,21.50
2018-11-28T22:35:00.648Z,19.93
2018-11-28T22:37:33.470Z,20.77
2018-11-28T22:40:11.795Z,20.67
2018-11-28T22:42:44.474Z,21.87
2018-11-28T22:45:19.651Z,21.40
2018-11-28T22:47:52.365Z,21.73
2018-11-28T22:50:25.133Z,21.67
2018-11-28T22:52:57.840Z,20.50
2018-11-28T22:55:30.728Z,22.10
2018-11-28T22:58:03.427Z,22.30
2018-11-28T23:00:41.720Z,21.93
2018-11-28T23:03:14.462Z,20.97
2018-11-28T23:05:48.874Z,22.47
2018-11-28T23:08:22.043Z,22.60
2018-11-28T23:10:54.661Z,20.57
2018-11-28T23:13:27.372Z,22.90
2018-11-28T23:15:59.986Z,22.27
2018-11-28T23:18:32.805Z,21.53
2018-11-28T23:21:05.682Z,23.47
2018-11-28T23:23:38.472Z,22.17
2018-11-28T23:26:11.204Z,23.77
2018-11-28T23:28:43.855Z,23.67
2018-11-28T23:31:16.808Z,23.60
2018-11-28T23:33:49.365Z,23.40
2018-11-28T23:36:22.122Z,24.23
2018-11-28T23:38:54.707Z,23.93
2018-11-28T23:41:27.319Z,23.57
2018-11-28T23:43:59.898Z,23.93
2018-11-28T23:46:32.688Z,23.40
2018-11-28T23:49:05.303Z,25.03
2018-11-28T23:51:38.198Z,25.47
2018-11-28T23:54:10.854Z,25.57
2018-11-28T23:56:43.541Z,26.07
2018-11-28T23:59:16.116Z,25.53
